BZZ weather

RAF Brize Norton
Brize Norton, England, United Kingdom

Public forecast

Using degrees Celsius for public forecast. Weather courtesy of forecast.io.

Current aviation weather report (METAR) for RAF Brize Norton

Retrieved 2019/12/10 08:20 UTC (0 seconds ago):

EGVN 100820Z 19010KT 9999 -RA SCT016 OVC023 08/06 Q1015 TEMPO SCT014 RMK WHT TEMPO GRN

Aviation forecast (TAF) for RAF Brize Norton

Retrieved 2019/12/10 09:00 UTC (0 seconds ago):

TAF EGVN 100748Z 1009/1109 19015G25KT 9999 BKN015 TEMPO 1009/1021 7000 RA BKN012 PROB30 TEMPO 1011/1019 20020G35KT PROB30 TEMPO 1016/1021 4000 +RA BECMG 1018/1021 26007KT FEW030